Terminal Aerodrome Forecast
Issued by NWS Melbourne, FL

Home | Current Version | Previous Version | Text Only | Print | Product List | Glossary On
Versions: 1 2 3 4 5 6 7 8 9 10 11 12 13 14 15 16 17 18 19 20 21 22 23 24 25
000
FTUS42 KMLB 291500 AAA
TAFMCO
TAF AMD
KMCO 291505Z 2915/3012 13006KT P6SM SCT030 SCT060
     FM291700 12008KT P6SM VCSH SCT030 BKN060
      TEMPO 2919/2922 TS BKN030CB BKN060
     FM300100 12008KT P6SM FEW060=

USA.gov is the U.S. government's official web portal to all federal, state and local government web resources and services.